createdAt,value
2022-10-19T00:01:08.579Z,12.16
2022-10-19T00:04:35.250Z,12.17
2022-10-19T00:08:06.237Z,12.15
2022-10-19T00:11:34.330Z,12.13
2022-10-19T00:15:01.740Z,12.08
2022-10-19T00:18:28.532Z,12.01
2022-10-19T00:21:56.454Z,11.98
2022-10-19T00:25:23.414Z,11.99
2022-10-19T00:28:50.639Z,11.98
2022-10-19T00:32:17.529Z,11.97
2022-10-19T00:35:45.093Z,11.96
2022-10-19T00:39:15.679Z,11.96
2022-10-19T00:42:42.580Z,11.96
2022-10-19T00:46:16.338Z,11.98
2022-10-19T00:49:42.984Z,12.01
2022-10-19T00:53:10.038Z,12.03
2022-10-19T00:56:40.009Z,12.04
2022-10-19T01:00:11.690Z,12.08
2022-10-19T01:03:39.541Z,12.11
2022-10-19T01:07:08.307Z,12.13
2022-10-19T01:10:44.867Z,12.12
2022-10-19T01:14:27.090Z,12.08
2022-10-19T01:18:04.676Z,12.05
2022-10-19T01:21:43.382Z,12.00
2022-10-19T01:25:25.054Z,11.95
2022-10-19T01:29:03.941Z,11.91
2022-10-19T01:32:39.542Z,11.89
2022-10-19T01:36:15.716Z,11.89
2022-10-19T01:39:51.777Z,11.85
2022-10-19T01:43:26.337Z,11.83
2022-10-19T01:46:58.440Z,11.86
2022-10-19T01:50:30.683Z,11.90
2022-10-19T01:54:04.363Z,11.93
2022-10-19T01:57:38.700Z,11.97
2022-10-19T02:04:43.790Z,12.01
2022-10-19T02:08:17.305Z,12.02
2022-10-19T02:11:46.440Z,12.03
2022-10-19T02:15:20.012Z,12.00
2022-10-19T02:18:50.488Z,12.02
2022-10-19T02:22:16.949Z,12.02
2022-10-19T02:25:43.875Z,12.02
2022-10-19T02:29:12.835Z,12.03
2022-10-19T02:32:39.186Z,12.02
2022-10-19T02:36:07.035Z,11.97
2022-10-19T02:39:33.783Z,11.86
2022-10-19T02:43:06.424Z,11.80
2022-10-19T02:46:37.427Z,11.75
2022-10-19T02:50:06.103Z,11.70
2022-10-19T02:53:33.077Z,11.69
2022-10-19T02:56:59.558Z,11.71
2022-10-19T03:00:26.568Z,11.74
2022-10-19T03:03:52.847Z,11.74
2022-10-19T03:07:21.253Z,11.77
2022-10-19T03:10:48.087Z,11.80
2022-10-19T03:14:14.556Z,11.82
2022-10-19T03:17:41.154Z,11.85
2022-10-19T03:24:51.096Z,11.87
2022-10-19T03:28:17.793Z,11.87
2022-10-19T03:31:44.214Z,11.88
2022-10-19T03:35:11.347Z,11.90
2022-10-19T03:38:37.877Z,11.92
2022-10-19T03:42:06.564Z,11.92
2022-10-19T03:45:33.278Z,11.88
2022-10-19T03:48:59.709Z,11.84
2022-10-19T03:52:26.771Z,11.81
2022-10-19T03:55:53.215Z,11.78
2022-10-19T03:59:19.729Z,11.73
2022-10-19T04:02:46.197Z,11.71
2022-10-19T04:06:18.190Z,11.69
2022-10-19T04:09:47.882Z,11.71
2022-10-19T04:13:14.490Z,11.71
2022-10-19T04:16:41.833Z,11.74
2022-10-19T04:20:10.224Z,11.76
2022-10-19T04:23:39.237Z,11.77
2022-10-19T04:27:05.901Z,11.79
2022-10-19T04:30:32.935Z,11.81
2022-10-19T04:33:59.821Z,11.82
2022-10-19T04:37:26.703Z,11.85
2022-10-19T04:40:53.418Z,11.87
2022-10-19T04:44:20.444Z,11.82
2022-10-19T04:47:47.139Z,11.81
2022-10-19T04:51:17.274Z,11.81
2022-10-19T04:54:43.805Z,11.84
2022-10-19T04:58:10.446Z,11.86
2022-10-19T05:01:46.455Z,11.86
2022-10-19T05:05:14.646Z,11.87
2022-10-19T05:08:41.448Z,11.84
2022-10-19T05:12:08.670Z,11.82
2022-10-19T05:15:36.373Z,11.79
2022-10-19T05:19:02.608Z,11.74
2022-10-19T05:22:29.620Z,11.70
2022-10-19T05:26:04.774Z,11.66
2022-10-19T05:29:31.545Z,11.63
2022-10-19T05:32:57.997Z,11.63
2022-10-19T05:36:26.489Z,11.64
2022-10-19T05:39:53.278Z,11.63
2022-10-19T05:43:19.814Z,11.63
2022-10-19T05:46:47.602Z,11.67
2022-10-19T05:50:14.472Z,11.71
2022-10-19T05:53:41.253Z,11.71
2022-10-19T05:57:07.788Z,11.72
2022-10-19T06:00:34.845Z,11.76
2022-10-19T06:04:03.246Z,11.81
2022-10-19T06:07:30.063Z,11.82
2022-10-19T06:11:05.300Z,11.83
2022-10-19T06:14:31.752Z,11.84
2022-10-19T06:17:58.283Z,11.86
2022-10-19T06:21:27.696Z,11.88
2022-10-19T06:24:54.251Z,11.91
2022-10-19T06:28:20.994Z,11.92
2022-10-19T06:31:49.443Z,11.94
2022-10-19T06:35:17.344Z,11.98
2022-10-19T06:38:44.350Z,12.03
2022-10-19T06:42:12.484Z,12.05
2022-10-19T06:45:41.960Z,12.10
2022-10-19T06:49:08.385Z,12.16
2022-10-19T06:52:35.885Z,12.20
2022-10-19T06:56:03.829Z,12.22
2022-10-19T06:59:33.184Z,12.23
2022-10-19T07:03:00.739Z,12.25
2022-10-19T07:06:29.767Z,12.25
2022-10-19T07:09:56.304Z,12.26
2022-10-19T07:13:22.849Z,12.27
2022-10-19T07:16:51.663Z,12.25
2022-10-19T07:20:18.453Z,12.24
2022-10-19T07:23:47.563Z,12.25
2022-10-19T07:27:14.112Z,12.26
2022-10-19T07:30:42.488Z,12.29
2022-10-19T07:34:12.903Z,12.35
2022-10-19T07:37:39.225Z,12.46
2022-10-19T07:41:12.887Z,12.51
2022-10-19T07:44:39.161Z,12.57
2022-10-19T07:48:05.665Z,12.63
2022-10-19T07:51:32.178Z,12.68
2022-10-19T07:54:58.587Z,12.76
2022-10-19T07:58:28.102Z,12.77
2022-10-19T08:01:56.050Z,12.82
2022-10-19T08:05:22.825Z,12.87
2022-10-19T08:08:50.766Z,12.91
2022-10-19T08:12:17.158Z,12.93
2022-10-19T08:15:43.766Z,12.89
2022-10-19T08:19:12.057Z,12.85
2022-10-19T08:22:38.813Z,12.75
2022-10-19T08:26:05.541Z,12.71
2022-10-19T08:29:32.330Z,12.68
2022-10-19T08:32:59.048Z,12.68
2022-10-19T08:36:27.872Z,12.74
2022-10-19T08:39:54.623Z,12.84
2022-10-19T08:43:36.358Z,12.85
2022-10-19T08:47:13.867Z,12.86
2022-10-19T08:51:03.149Z,12.84
2022-10-19T08:54:36.944Z,12.79
2022-10-19T08:58:15.163Z,12.72
2022-10-19T09:01:48.374Z,12.69
2022-10-19T09:05:16.873Z,12.75
2022-10-19T09:08:44.018Z,12.74
2022-10-19T09:12:16.891Z,12.80
2022-10-19T09:15:45.869Z,12.89
2022-10-19T09:19:26.029Z,12.98
2022-10-19T09:23:01.666Z,12.98
2022-10-19T09:26:32.496Z,12.95
2022-10-19T09:30:03.928Z,12.89
2022-10-19T09:33:36.910Z,12.89
2022-10-19T09:37:04.437Z,12.95
2022-10-19T09:40:32.429Z,13.00
2022-10-19T09:44:05.258Z,13.10
2022-10-19T09:47:47.671Z,13.27
2022-10-19T09:51:17.596Z,13.42
2022-10-19T09:54:44.776Z,13.53
2022-10-19T09:58:20.540Z,13.59
2022-10-19T10:01:46.978Z,13.58
2022-10-19T10:05:17.902Z,13.45
2022-10-19T10:08:50.396Z,13.43
2022-10-19T10:12:18.989Z,13.49
2022-10-19T10:15:49.465Z,13.58
2022-10-19T10:19:19.178Z,13.69
2022-10-19T10:22:59.281Z,13.68
2022-10-19T10:26:29.364Z,13.78
2022-10-19T10:29:59.591Z,13.79
2022-10-19T10:33:40.762Z,13.69
2022-10-19T10:37:21.657Z,13.75
2022-10-19T10:40:55.914Z,13.92
2022-10-19T10:44:29.923Z,14.13
2022-10-19T10:47:58.420Z,14.07
2022-10-19T10:51:34.104Z,13.95
2022-10-19T10:55:18.753Z,13.77
2022-10-19T10:58:51.930Z,13.70
2022-10-19T11:02:34.865Z,13.78
2022-10-19T11:06:03.307Z,13.88
2022-10-19T11:09:36.073Z,14.00
2022-10-19T11:13:09.849Z,13.98
2022-10-19T11:16:42.789Z,13.89
2022-10-19T11:20:17.438Z,13.77
2022-10-19T11:24:03.024Z,13.84
2022-10-19T11:27:45.092Z,13.86
2022-10-19T11:31:18.065Z,13.95
2022-10-19T11:35:00.744Z,14.07
2022-10-19T11:38:38.004Z,14.21
2022-10-19T11:42:17.518Z,14.20
2022-10-19T11:46:01.267Z,14.10
2022-10-19T11:49:42.628Z,13.90
2022-10-19T11:53:17.870Z,13.64
2022-10-19T11:57:03.245Z,13.41
2022-10-19T12:00:39.911Z,13.57
2022-10-19T12:04:49.280Z,13.82
2022-10-19T12:08:35.504Z,14.08
2022-10-19T12:12:22.197Z,14.28
2022-10-19T12:15:54.214Z,14.54
2022-10-19T12:19:36.348Z,14.77
2022-10-19T12:23:23.595Z,14.98
2022-10-19T12:26:51.959Z,15.17
2022-10-19T12:30:22.707Z,15.42
2022-10-19T12:34:01.230Z,15.44
2022-10-19T12:37:36.229Z,15.25
2022-10-19T12:41:16.172Z,14.90
2022-10-19T12:45:19.327Z,14.64
2022-10-19T12:48:46.079Z,14.58
2022-10-19T12:52:14.532Z,14.78
2022-10-19T12:55:43.538Z,15.01
2022-10-19T12:59:25.930Z,15.27
2022-10-19T13:03:05.460Z,15.59
2022-10-19T13:06:37.404Z,15.81
2022-10-19T13:10:06.207Z,15.89
2022-10-19T13:13:53.810Z,15.56
2022-10-19T13:17:44.102Z,15.21
2022-10-19T13:21:11.422Z,14.84
2022-10-19T13:28:53.753Z,14.48
2022-10-19T13:32:52.239Z,14.62
2022-10-19T13:36:20.074Z,14.72
2022-10-19T13:39:48.505Z,14.61
2022-10-19T13:43:23.406Z,14.40
2022-10-19T13:47:02.226Z,14.34
2022-10-19T13:50:43.928Z,14.32
2022-10-19T13:54:33.176Z,14.23
2022-10-19T13:58:21.815Z,14.05
2022-10-19T14:02:02.607Z,13.82
2022-10-19T14:05:49.755Z,13.63
2022-10-19T14:09:48.064Z,13.42
2022-10-19T14:13:17.516Z,13.25
2022-10-19T14:16:56.010Z,13.11
2022-10-19T14:20:36.812Z,12.95
2022-10-19T14:24:04.192Z,12.81
2022-10-19T14:27:31.944Z,12.71
2022-10-19T14:31:02.339Z,12.61
2022-10-19T14:34:29.035Z,12.53
2022-10-19T14:37:55.880Z,12.47
2022-10-19T14:45:08.102Z,12.36
2022-10-19T14:48:36.394Z,12.33
2022-10-19T14:52:08.216Z,12.31
2022-10-19T14:55:40.857Z,12.21
2022-10-19T14:59:19.363Z,12.12
2022-10-19T15:02:48.721Z,12.02
2022-10-19T15:06:23.561Z,11.87
2022-10-19T15:09:58.401Z,11.75
2022-10-19T15:13:30.419Z,11.64
2022-10-19T15:16:59.983Z,11.54
2022-10-19T15:20:43.922Z,11.44
2022-10-19T15:24:29.324Z,11.36
2022-10-19T15:27:58.034Z,11.26
2022-10-19T15:31:30.595Z,11.16
2022-10-19T15:35:12.736Z,11.08
2022-10-19T15:38:39.956Z,10.99
2022-10-19T15:42:25.150Z,10.89
2022-10-19T15:46:03.597Z,10.79
2022-10-19T15:50:01.190Z,10.70
2022-10-19T15:53:33.572Z,10.58
2022-10-19T15:57:03.254Z,10.50
2022-10-19T16:00:32.616Z,10.41
2022-10-19T16:04:00.850Z,10.28
2022-10-19T16:07:32.360Z,10.19
2022-10-19T16:11:02.429Z,10.09
2022-10-19T16:14:37.409Z,9.98
2022-10-19T16:18:06.481Z,9.89
2022-10-19T16:21:36.449Z,9.81
2022-10-19T16:25:03.505Z,9.73
2022-10-19T16:28:30.413Z,9.67
2022-10-19T16:32:02.480Z,9.58
2022-10-19T16:35:32.329Z,9.49
2022-10-19T16:39:08.085Z,9.42
2022-10-19T16:42:37.274Z,9.34
2022-10-19T16:46:06.164Z,9.27
2022-10-19T16:49:34.828Z,9.25
2022-10-19T16:53:12.769Z,9.23
2022-10-19T16:56:45.356Z,9.22
2022-10-19T17:00:16.992Z,9.20
2022-10-19T17:03:43.695Z,9.20
2022-10-19T17:07:13.675Z,9.21
2022-10-19T17:10:40.930Z,9.21
2022-10-19T17:14:12.086Z,9.16
2022-10-19T17:17:39.494Z,9.15
2022-10-19T17:21:20.421Z,9.08
2022-10-19T17:24:47.683Z,8.99
2022-10-19T17:28:14.575Z,8.90
2022-10-19T17:31:42.561Z,8.79
2022-10-19T17:35:11.192Z,8.70
2022-10-19T17:38:38.583Z,8.64
2022-10-19T17:42:07.005Z,8.60
2022-10-19T17:45:36.513Z,8.55
2022-10-19T17:49:05.618Z,8.46
2022-10-19T17:52:32.616Z,8.50
2022-10-19T17:56:02.440Z,8.47
2022-10-19T17:59:30.588Z,8.44
2022-10-19T18:03:02.891Z,8.42
2022-10-19T18:06:31.899Z,8.38
2022-10-19T18:10:02.068Z,8.34
2022-10-19T18:13:29.440Z,8.30
2022-10-19T18:16:58.375Z,8.27
2022-10-19T18:20:25.540Z,8.30
2022-10-19T18:23:53.728Z,8.30
2022-10-19T18:27:23.738Z,8.25
2022-10-19T18:30:50.584Z,8.19
2022-10-19T18:34:20.325Z,8.13
2022-10-19T18:37:49.668Z,8.08
2022-10-19T18:41:18.430Z,8.02
2022-10-19T18:44:45.132Z,7.94
2022-10-19T18:48:12.414Z,7.87
2022-10-19T18:51:40.032Z,7.77
2022-10-19T18:55:09.883Z,7.68
2022-10-19T18:58:41.081Z,7.59
2022-10-19T19:02:13.692Z,7.49
2022-10-19T19:05:50.317Z,7.41
2022-10-19T19:09:19.194Z,7.34
2022-10-19T19:12:48.325Z,7.28
2022-10-19T19:16:17.322Z,7.22
2022-10-19T19:19:45.712Z,7.16
2022-10-19T19:23:12.358Z,7.17
2022-10-19T19:26:43.414Z,7.15
2022-10-19T19:30:12.267Z,7.14
2022-10-19T19:33:40.153Z,7.14
2022-10-19T19:37:10.347Z,7.14
2022-10-19T19:40:42.170Z,7.12
2022-10-19T19:44:14.571Z,7.09
2022-10-19T19:47:41.807Z,7.05
2022-10-19T19:51:10.723Z,7.03
2022-10-19T19:54:37.713Z,6.99
2022-10-19T19:58:04.463Z,6.95
2022-10-19T20:01:32.302Z,6.91
2022-10-19T20:04:59.040Z,6.87
2022-10-19T20:08:30.848Z,6.81
2022-10-19T20:11:58.989Z,6.73
2022-10-19T20:15:27.208Z,6.65
2022-10-19T20:18:58.020Z,6.59
2022-10-19T20:22:27.143Z,6.53
2022-10-19T20:26:00.003Z,6.46
2022-10-19T20:29:30.446Z,6.42
2022-10-19T20:33:04.861Z,6.38
2022-10-19T20:36:34.268Z,6.35
2022-10-19T20:40:08.563Z,6.33
2022-10-19T20:43:59.265Z,6.33
2022-10-19T20:47:26.100Z,6.33
2022-10-19T20:50:53.139Z,6.31
2022-10-19T20:54:19.663Z,6.31
2022-10-19T20:57:51.159Z,6.29
2022-10-19T21:01:20.363Z,6.26
2022-10-19T21:04:48.287Z,6.22
2022-10-19T21:08:31.060Z,6.16
2022-10-19T21:11:59.557Z,6.08
2022-10-19T21:15:28.431Z,6.01
2022-10-19T21:18:56.191Z,5.94
2022-10-19T21:22:23.326Z,5.84
2022-10-19T21:26:00.677Z,5.75
2022-10-19T21:29:28.646Z,5.67
2022-10-19T21:32:55.470Z,5.61
2022-10-19T21:36:25.476Z,5.55
2022-10-19T21:39:54.394Z,5.51
2022-10-19T21:43:22.433Z,5.50
2022-10-19T21:46:50.697Z,5.48
2022-10-19T21:50:20.132Z,5.48
2022-10-19T21:53:48.104Z,5.49
2022-10-19T21:57:14.983Z,5.51
2022-10-19T22:00:42.347Z,5.53
2022-10-19T22:04:12.899Z,5.54
2022-10-19T22:07:39.530Z,5.55
2022-10-19T22:11:10.232Z,5.54
2022-10-19T22:14:37.384Z,5.53
2022-10-19T22:18:04.620Z,5.49
2022-10-19T22:21:34.194Z,5.43
2022-10-19T22:25:02.932Z,5.34
2022-10-19T22:28:30.213Z,5.26
2022-10-19T22:31:58.364Z,5.19
2022-10-19T22:35:25.799Z,5.11
2022-10-19T22:38:53.873Z,5.04
2022-10-19T22:42:20.750Z,4.96
2022-10-19T22:45:50.052Z,4.89
2022-10-19T22:49:16.273Z,4.85
2022-10-19T22:52:46.524Z,4.81
2022-10-19T22:56:14.407Z,4.78
2022-10-19T22:59:41.011Z,4.78
2022-10-19T23:03:08.474Z,4.78
2022-10-19T23:06:36.358Z,4.79
2022-10-19T23:10:02.994Z,4.82
2022-10-19T23:13:29.910Z,4.84
2022-10-19T23:16:56.901Z,4.79
2022-10-19T23:20:23.454Z,4.72
2022-10-19T23:23:50.247Z,4.70
2022-10-19T23:27:17.616Z,4.65
2022-10-19T23:30:44.957Z,4.56
2022-10-19T23:34:12.048Z,4.50
2022-10-19T23:37:38.956Z,4.43
2022-10-19T23:41:07.119Z,4.38
2022-10-19T23:44:34.236Z,4.33
2022-10-19T23:48:01.722Z,4.28
2022-10-19T23:51:28.393Z,4.23
2022-10-19T23:54:55.232Z,4.20
2022-10-19T23:58:22.150Z,4.15
